Weather reports worldwide

Advertisment
Glasgow/Intl, United Kingdom (3140): temperature & dewpoint: 17.01.2019 02:00:00 - 23.01.2019 02:00:00 (GMT)Glasgow/Intl, United Kingdom (3140): wind speed: 17.01.2019 02:00:00 - 23.01.2019 02:00:00 (GMT)Glasgow/Intl, United Kingdom (3140): wind direction: 17.01.2019 02:00:00 - 23.01.2019 02:00:00 (GMT)Glasgow/Intl, United Kingdom (3140): visibility: 17.01.2019 02:00:00 - 23.01.2019 02:00:00 (GMT)
Date & Time tt [°C] td [°C] ff [km/h] ff [kn] dd vv [km]
23.01.2019 02:00:00 -4,0 -5,0 2 1 - 9
23.01.2019 01:00:00 -4,0 -4,0 8 4 SW 10
23.01.2019 00:00:00 -5,0 -5,0 4 2 SSW 10
22.01.2019 23:00:00 -4,0 -4,0 8 4 WSW 8
22.01.2019 22:00:00 -3,0 -3,0 2 1 - 10
22.01.2019 21:00:00 -2,0 -2,0 4 2 - 10
22.01.2019 20:00:00 -2,0 -3,0 5 3 - 10
22.01.2019 19:00:00 -1,0 -2,0 4 2 SW 10
22.01.2019 18:00:00 0,0 -2,0 5 3 SSW 10
22.01.2019 17:00:00 0,0 -1,0 8 4 SW 10
22.01.2019 16:00:00 2,0 0,0 13 7 WSW 10
22.01.2019 15:00:00 2,0 0,0 8 4 WSW 10
22.01.2019 14:00:00 2,0 0,0 11 6 WSW 10
22.01.2019 13:00:00 2,0 1,0 9 5 WSW 10
22.01.2019 12:00:00 1,0 0,0 9 5 WSW 10
22.01.2019 11:00:00 1,0 1,0 9 5 NNW 10
22.01.2019 10:00:00 0,0 0,0 4 2 - 5
22.01.2019 09:00:00 0,0 0,0 9 5 SW 1,5
22.01.2019 08:00:00 0,0 0,0 9 5 WSW 8
22.01.2019 07:00:00 1,0 0,0 5 3 - 10
22.01.2019 06:00:00 0,0 -1,0 2 1 - 10
22.01.2019 05:00:00 0,0 -1,0 11 6 WSW 10
22.01.2019 04:00:00 0,0 -1,0 2 1 - 10
22.01.2019 03:00:00 1,0 0,0 4 2 - 10
22.01.2019 02:00:00 1,0 0,0 5 3 - 10
22.01.2019 01:00:00 1,0 1,0 4 2 - 10
22.01.2019 00:00:00 2,0 1,0 8 4 WSW 10
21.01.2019 23:00:00 2,0 1,0 11 6 WSW 10
21.01.2019 22:00:00 2,0 1,0 9 5 SW 10
21.01.2019 21:00:00 4,0 2,0 28 15 WNW 7
21.01.2019 20:00:00 5,0 4,0 22 12 SSW 10
21.01.2019 19:00:00 4,0 3,0 21 11 S 7
21.01.2019 18:00:00 4,0 3,0 22 12 S 5
21.01.2019 17:00:00 4,0 2,0 29 16 S 4,9
21.01.2019 16:00:00 5,0 2,0 28 15 S 8
21.01.2019 15:00:00 5,0 2,0 26 14 S 10
21.01.2019 14:00:00 5,0 1,0 26 14 S 10
21.01.2019 13:00:00 5,0 1,0 16 9 S 10
21.01.2019 12:00:00 4,0 1,0 24 13 S 10
21.01.2019 11:00:00 4,0 1,0 22 12 S 10
21.01.2019 10:00:00 1,0 0,0 5 3 - 10
21.01.2019 09:00:00 0,0 -1,0 5 3 ENE 10
21.01.2019 08:00:00 -1,0 -1,0 4 2 NE 10
21.01.2019 07:00:00 -1,0 -2,0 4 2 NE 10
21.01.2019 06:00:00 -2,0 -2,0 2 1 - 10
21.01.2019 05:00:00 -2,0 -3,0 4 2 NE 9
21.01.2019 04:00:00 -2,0 -3,0 5 3 - 10
21.01.2019 03:00:00 -3,0 -3,0 2 1 NNE 10
21.01.2019 02:00:00 -2,0 -3,0 5 3 NNE 10
21.01.2019 01:00:00 -1,0 -3,0 5 3 WSW 10
21.01.2019 00:00:00 -1,0 -2,0 8 4 WSW 10
20.01.2019 23:00:00 -1,0 -2,0 5 3 - 10
20.01.2019 22:00:00 0,0 -1,0 9 5 WSW 10
20.01.2019 21:00:00 0,0 -1,0 11 6 S 10
20.01.2019 20:00:00 1,0 -1,0 11 6 WNW 10
20.01.2019 19:00:00 3,0 -1,0 5 3 - 10
20.01.2019 18:00:00 2,0 0,0 8 4 WSW 10
20.01.2019 17:00:00 3,0 1,0 15 8 WNW 10
20.01.2019 16:00:00 5,0 2,0 15 8 W 10
20.01.2019 15:00:00 6,0 3,0 13 7 W 10
20.01.2019 14:00:00 6,0 4,0 9 5 W 10
20.01.2019 13:00:00 4,0 3,0 8 4 SW 3,6
20.01.2019 12:00:00 3,0 2,0 9 5 WSW 2,9
20.01.2019 11:00:00 3,0 2,0 8 4 SW 4,7
20.01.2019 10:00:00 2,0 2,0 9 5 WSW 4,7
20.01.2019 09:00:00 2,0 1,0 5 3 SW 6
20.01.2019 08:00:00 2,0 1,0 8 4 SSW 7
20.01.2019 07:00:00 2,0 1,0 8 4 SSW 6
20.01.2019 06:00:00 2,0 1,0 4 2 SSW 5
20.01.2019 05:00:00 2,0 1,0 5 3 WSW 5
20.01.2019 04:00:00 2,0 1,0 4 2 W 5
20.01.2019 03:00:00 2,0 1,0 2 1 - 6
20.01.2019 02:00:00 2,0 1,0 4 2 WSW 5
20.01.2019 01:00:00 2,0 1,0 4 2 - 6
20.01.2019 00:00:00 2,0 1,0 5 3 S 8
19.01.2019 23:00:00 2,0 1,0 5 3 SSE 9
19.01.2019 22:00:00 3,0 1,0 8 4 SSE 9
19.01.2019 21:00:00 3,0 1,0 2 1 - 10
19.01.2019 20:00:00 3,0 1,0 5 3 - 9
19.01.2019 19:00:00 3,0 1,0 8 4 ENE 9
19.01.2019 18:00:00 3,0 1,0 5 3 ESE 8
19.01.2019 17:00:00 3,0 1,0 9 5 ENE 10
19.01.2019 16:00:00 4,0 1,0 11 6 ENE 10
19.01.2019 15:00:00 4,0 2,0 8 4 E 9
19.01.2019 14:00:00 4,0 1,0 8 4 E 10
19.01.2019 13:00:00 3,0 2,0 9 5 ESE 6
19.01.2019 12:00:00 3,0 2,0 11 6 E 5
19.01.2019 11:00:00 3,0 2,0 15 8 ENE 4,9
19.01.2019 10:00:00 3,0 2,0 9 5 E 4,8
19.01.2019 09:00:00 2,0 1,0 8 4 ENE 4,5
19.01.2019 08:00:00 2,0 1,0 13 7 ENE 3,0
19.01.2019 07:00:00 1,0 0,0 9 5 ENE 4,0
19.01.2019 06:00:00 2,0 1,0 8 4 E 6
19.01.2019 05:00:00 2,0 1,0 11 6 NE 5
19.01.2019 04:00:00 2,0 1,0 15 8 ENE 6
19.01.2019 03:00:00 2,0 1,0 15 8 ENE 6
19.01.2019 02:00:00 2,0 1,0 9 5 E 6
19.01.2019 01:00:00 2,0 1,0 16 9 ENE 5
19.01.2019 00:00:00 2,0 1,0 15 8 ENE 6
18.01.2019 23:00:00 2,0 1,0 15 8 ENE 6
18.01.2019 22:00:00 1,0 1,0 16 9 ENE 6
18.01.2019 21:00:00 1,0 0,0 18 10 ENE 5
18.01.2019 20:00:00 2,0 0,0 15 8 ENE 5
18.01.2019 19:00:00 2,0 -1,0 15 8 E 10
18.01.2019 18:00:00 2,0 -2,0 16 9 ENE 10
18.01.2019 17:00:00 2,0 -2,0 15 8 ENE 10
18.01.2019 16:00:00 2,0 -1,0 16 9 ENE 10
18.01.2019 15:00:00 3,0 -2,0 15 8 ENE 10
18.01.2019 14:00:00 2,0 -2,0 15 8 ENE 10
18.01.2019 13:00:00 2,0 -3,0 15 8 ENE 10
18.01.2019 12:00:00 2,0 -3,0 16 9 ENE 10
18.01.2019 11:00:00 1,0 -3,0 13 7 ENE 10
18.01.2019 10:00:00 0,0 -3,0 15 8 ENE 10
18.01.2019 09:00:00 0,0 -3,0 16 9 ENE 10
18.01.2019 08:00:00 -1,0 -4,0 16 9 ENE 10
18.01.2019 07:00:00 -1,0 -3,0 16 9 ENE 10
18.01.2019 06:00:00 -2,0 -4,0 15 8 NE 10
18.01.2019 05:00:00 -3,0 -5,0 13 7 NE 10
18.01.2019 04:00:00 -2,0 -3,0 8 4 E 10
18.01.2019 03:00:00 -4,0 -5,0 4 2 NE 10
18.01.2019 02:00:00 -3,0 -4,0 8 4 E 10
18.01.2019 01:00:00 -2,0 -3,0 8 4 ENE 10
18.01.2019 00:00:00 -2,0 -3,0 5 3 ENE 10
17.01.2019 23:00:00 -2,0 -3,0 8 4 ENE 10
17.01.2019 22:00:00 -1,0 -2,0 2 1 - 10
17.01.2019 21:00:00 -1,0 -2,0 2 1 - 10
17.01.2019 20:00:00 0,0 -2,0 2 1 SE 10
17.01.2019 19:00:00 -1,0 -3,0 4 2 WSW 10
17.01.2019 18:00:00 -1,0 -3,0 8 4 SW 10
17.01.2019 17:00:00 0,0 -3,0 8 4 W 10
17.01.2019 16:00:00 2,0 -2,0 11 6 WNW 10
17.01.2019 15:00:00 3,0 -2,0 11 6 W 10
17.01.2019 14:00:00 4,0 -2,0 13 7 W 10
17.01.2019 13:00:00 4,0 -2,0 15 8 W 10
17.01.2019 12:00:00 4,0 -2,0 5 3 - 10
17.01.2019 11:00:00 2,0 -2,0 15 8 WNW 10
17.01.2019 10:00:00 0,0 -2,0 8 4 W 10
17.01.2019 09:00:00 -1,0 -2,0 13 7 W 10
17.01.2019 08:00:00 -1,0 -3,0 18 10 SW 10
17.01.2019 07:00:00 -1,0 -4,0 15 8 SSW 10
17.01.2019 06:00:00 0,0 -3,0 13 7 W 10
17.01.2019 05:00:00 -3,0 -5,0 13 7 SW 10
17.01.2019 04:00:00 -1,0 -4,0 13 7 W 10
17.01.2019 03:00:00 -1,0 -4,0 9 5 WNW 10
17.01.2019 02:00:00 0,0 -5,0 8 4 WNW 10

tt = temperature
td = dewpoint
ff = wind speed
dd = wind direction
vv = visibility

Next stations